sensor_id;sensor_type;location;lat;lon;timestamp;P1;durP1;ratioP1;P2;durP2;ratioP2
20229;SDS011;12195;55.790;37.572;2023-05-19T00:00:07;1.35;;;1.25;;
20229;SDS011;12195;55.790;37.572;2023-05-19T00:02:39;2.30;;;1.25;;
20229;SDS011;12195;55.790;37.572;2023-05-19T00:05:25;5.47;;;1.20;;
20229;SDS011;12195;55.790;37.572;2023-05-19T00:08:11;2.85;;;1.10;;
20229;SDS011;12195;55.790;37.572;2023-05-19T00:10:58;2.95;;;1.00;;
20229;SDS011;12195;55.790;37.572;2023-05-19T00:13:31;1.37;;;1.22;;
20229;SDS011;12195;55.790;37.572;2023-05-19T00:16:16;2.08;;;1.05;;
20229;SDS011;12195;55.790;37.572;2023-05-19T00:18:49;1.85;;;1.20;;
20229;SDS011;12195;55.790;37.572;2023-05-19T00:21:34;1.20;;;1.10;;
20229;SDS011;12195;55.790;37.572;2023-05-19T00:24:10;2.42;;;1.15;;
20229;SDS011;12195;55.790;37.572;2023-05-19T00:26:55;2.85;;;1.30;;
20229;SDS011;12195;55.790;37.572;2023-05-19T00:29:28;2.58;;;1.20;;
20229;SDS011;12195;55.790;37.572;2023-05-19T00:32:00;2.65;;;1.20;;
20229;SDS011;12195;55.790;37.572;2023-05-19T00:34:45;1.25;;;0.98;;
20229;SDS011;12195;55.790;37.572;2023-05-19T00:37:29;2.77;;;1.50;;
20229;SDS011;12195;55.790;37.572;2023-05-19T00:40:02;1.45;;;1.00;;
20229;SDS011;12195;55.790;37.572;2023-05-19T00:42:35;1.50;;;1.40;;
20229;SDS011;12195;55.790;37.572;2023-05-19T00:45:09;1.75;;;1.25;;
20229;SDS011;12195;55.790;37.572;2023-05-19T00:47:53;1.95;;;1.32;;
20229;SDS011;12195;55.790;37.572;2023-05-19T00:50:26;2.87;;;1.30;;
20229;SDS011;12195;55.790;37.572;2023-05-19T00:53:11;1.72;;;1.20;;
20229;SDS011;12195;55.790;37.572;2023-05-19T00:55:45;4.08;;;1.10;;
20229;SDS011;12195;55.790;37.572;2023-05-19T00:58:29;1.72;;;1.10;;
20229;SDS011;12195;55.790;37.572;2023-05-19T01:01:11;1.42;;;1.00;;
20229;SDS011;12195;55.790;37.572;2023-05-19T01:03:46;1.35;;;0.95;;
20229;SDS011;12195;55.790;37.572;2023-05-19T01:06:28;1.92;;;1.12;;
20229;SDS011;12195;55.790;37.572;2023-05-19T01:09:01;3.77;;;1.25;;
20229;SDS011;12195;55.790;37.572;2023-05-19T01:11:43;0.95;;;0.93;;
20229;SDS011;12195;55.790;37.572;2023-05-19T01:14:25;1.10;;;0.93;;
20229;SDS011;12195;55.790;37.572;2023-05-19T01:20:15;0.82;;;0.60;;
20229;SDS011;12195;55.790;37.572;2023-05-19T01:29:07;0.78;;;0.78;;
20229;SDS011;12195;55.790;37.572;2023-05-19T01:31:40;0.60;;;0.53;;
20229;SDS011;12195;55.790;37.572;2023-05-19T01:34:16;0.80;;;0.80;;
20229;SDS011;12195;55.790;37.572;2023-05-19T01:37:01;2.25;;;1.20;;
20229;SDS011;12195;55.790;37.572;2023-05-19T01:39:35;3.03;;;1.20;;
20229;SDS011;12195;55.790;37.572;2023-05-19T01:42:20;1.55;;;1.20;;
20229;SDS011;12195;55.790;37.572;2023-05-19T01:44:53;1.75;;;1.40;;
20229;SDS011;12195;55.790;37.572;2023-05-19T01:47:39;2.50;;;1.40;;
20229;SDS011;12195;55.790;37.572;2023-05-19T01:50:13;1.82;;;1.50;;
20229;SDS011;12195;55.790;37.572;2023-05-19T01:52:58;1.87;;;1.35;;
20229;SDS011;12195;55.790;37.572;2023-05-19T01:55:31;6.92;;;2.17;;
20229;SDS011;12195;55.790;37.572;2023-05-19T01:58:16;5.58;;;1.77;;
20229;SDS011;12195;55.790;37.572;2023-05-19T02:04:22;5.33;;;2.08;;
20229;SDS011;12195;55.790;37.572;2023-05-19T02:07:14;3.15;;;1.60;;
20229;SDS011;12195;55.790;37.572;2023-05-19T02:10:05;7.53;;;1.80;;
20229;SDS011;12195;55.790;37.572;2023-05-19T02:12:40;3.92;;;1.50;;
20229;SDS011;12195;55.790;37.572;2023-05-19T02:15:43;5.28;;;1.85;;
20229;SDS011;12195;55.790;37.572;2023-05-19T02:21:01;4.72;;;1.92;;
20229;SDS011;12195;55.790;37.572;2023-05-19T02:23:42;3.83;;;1.80;;
20229;SDS011;12195;55.790;37.572;2023-05-19T02:26:15;5.40;;;1.90;;
20229;SDS011;12195;55.790;37.572;2023-05-19T02:28:59;4.47;;;1.82;;
20229;SDS011;12195;55.790;37.572;2023-05-19T02:31:31;4.22;;;2.12;;
20229;SDS011;12195;55.790;37.572;2023-05-19T02:34:13;8.30;;;1.98;;
20229;SDS011;12195;55.790;37.572;2023-05-19T02:36:46;2.77;;;1.50;;
20229;SDS011;12195;55.790;37.572;2023-05-19T02:39:33;2.60;;;1.67;;
20229;SDS011;12195;55.790;37.572;2023-05-19T02:42:06;1.82;;;1.60;;
20229;SDS011;12195;55.790;37.572;2023-05-19T02:44:50;3.37;;;1.95;;
20229;SDS011;12195;55.790;37.572;2023-05-19T02:47:24;3.30;;;1.70;;
20229;SDS011;12195;55.790;37.572;2023-05-19T02:50:09;6.20;;;1.80;;
20229;SDS011;12195;55.790;37.572;2023-05-19T02:52:53;1.80;;;1.50;;
20229;SDS011;12195;55.790;37.572;2023-05-19T02:55:25;3.27;;;1.70;;
20229;SDS011;12195;55.790;37.572;2023-05-19T02:58:09;2.62;;;1.75;;
20229;SDS011;12195;55.790;37.572;2023-05-19T03:00:42;3.87;;;1.87;;
20229;SDS011;12195;55.790;37.572;2023-05-19T03:03:26;2.42;;;1.45;;
20229;SDS011;12195;55.790;37.572;2023-05-19T03:05:59;2.67;;;1.70;;
20229;SDS011;12195;55.790;37.572;2023-05-19T03:08:44;3.87;;;1.98;;
20229;SDS011;12195;55.790;37.572;2023-05-19T03:11:16;4.30;;;2.33;;
20229;SDS011;12195;55.790;37.572;2023-05-19T03:13:59;3.83;;;2.40;;
20229;SDS011;12195;55.790;37.572;2023-05-19T03:16:41;5.95;;;1.98;;
20229;SDS011;12195;55.790;37.572;2023-05-19T03:19:14;5.65;;;2.30;;
20229;SDS011;12195;55.790;37.572;2023-05-19T03:21:57;3.35;;;2.10;;
20229;SDS011;12195;55.790;37.572;2023-05-19T03:24:39;3.47;;;1.80;;
20229;SDS011;12195;55.790;37.572;2023-05-19T03:27:23;4.65;;;2.00;;
20229;SDS011;12195;55.790;37.572;2023-05-19T03:29:57;16.77;;;2.58;;
20229;SDS011;12195;55.790;37.572;2023-05-19T03:32:39;11.97;;;3.33;;
20229;SDS011;12195;55.790;37.572;2023-05-19T03:35:13;6.20;;;2.72;;
20229;SDS011;12195;55.790;37.572;2023-05-19T03:37:55;4.33;;;2.05;;
20229;SDS011;12195;55.790;37.572;2023-05-19T03:40:28;4.45;;;2.67;;
20229;SDS011;12195;55.790;37.572;2023-05-19T03:43:18;4.58;;;1.90;;
20229;SDS011;12195;55.790;37.572;2023-05-19T03:45:52;4.28;;;2.37;;
20229;SDS011;12195;55.790;37.572;2023-05-19T03:48:36;4.40;;;2.00;;
20229;SDS011;12195;55.790;37.572;2023-05-19T03:51:23;5.55;;;2.95;;
20229;SDS011;12195;55.790;37.572;2023-05-19T03:54:09;6.08;;;2.58;;
20229;SDS011;12195;55.790;37.572;2023-05-19T03:56:41;4.10;;;2.30;;
20229;SDS011;12195;55.790;37.572;2023-05-19T03:59:24;4.58;;;2.65;;
20229;SDS011;12195;55.790;37.572;2023-05-19T04:01:56;5.78;;;2.40;;
20229;SDS011;12195;55.790;37.572;2023-05-19T04:04:40;4.05;;;2.30;;
20229;SDS011;12195;55.790;37.572;2023-05-19T04:07:13;3.98;;;2.47;;
20229;SDS011;12195;55.790;37.572;2023-05-19T04:09:57;5.87;;;3.35;;
20229;SDS011;12195;55.790;37.572;2023-05-19T04:12:31;3.25;;;2.08;;
20229;SDS011;12195;55.790;37.572;2023-05-19T04:15:04;5.53;;;3.02;;
20229;SDS011;12195;55.790;37.572;2023-05-19T04:17:46;3.85;;;2.45;;
20229;SDS011;12195;55.790;37.572;2023-05-19T04:20:20;7.35;;;2.85;;
20229;SDS011;12195;55.790;37.572;2023-05-19T04:23:05;4.53;;;2.85;;
20229;SDS011;12195;55.790;37.572;2023-05-19T04:25:39;4.13;;;2.60;;
20229;SDS011;12195;55.790;37.572;2023-05-19T04:28:24;8.03;;;3.40;;
20229;SDS011;12195;55.790;37.572;2023-05-19T04:30:58;5.30;;;3.02;;
20229;SDS011;12195;55.790;37.572;2023-05-19T04:33:40;4.33;;;2.70;;
20229;SDS011;12195;55.790;37.572;2023-05-19T04:36:13;4.00;;;2.80;;
20229;SDS011;12195;55.790;37.572;2023-05-19T04:38:57;5.70;;;3.02;;
20229;SDS011;12195;55.790;37.572;2023-05-19T04:41:32;3.98;;;3.15;;
20229;SDS011;12195;55.790;37.572;2023-05-19T04:44:15;3.75;;;2.70;;
20229;SDS011;12195;55.790;37.572;2023-05-19T04:49:34;4.47;;;3.15;;
20229;SDS011;12195;55.790;37.572;2023-05-19T04:52:10;4.10;;;3.15;;
20229;SDS011;12195;55.790;37.572;2023-05-19T04:54:54;4.40;;;2.90;;
20229;SDS011;12195;55.790;37.572;2023-05-19T04:57:37;5.42;;;3.08;;
20229;SDS011;12195;55.790;37.572;2023-05-19T05:00:11;9.03;;;5.03;;
20229;SDS011;12195;55.790;37.572;2023-05-19T05:03:10;5.12;;;3.10;;
20229;SDS011;12195;55.790;37.572;2023-05-19T05:05:54;5.35;;;3.25;;
20229;SDS011;12195;55.790;37.572;2023-05-19T05:11:12;4.80;;;3.25;;
20229;SDS011;12195;55.790;37.572;2023-05-19T05:13:46;4.65;;;3.20;;
20229;SDS011;12195;55.790;37.572;2023-05-19T05:16:19;5.03;;;3.62;;
20229;SDS011;12195;55.790;37.572;2023-05-19T05:19:03;5.25;;;3.47;;
20229;SDS011;12195;55.790;37.572;2023-05-19T05:21:36;7.50;;;3.65;;
20229;SDS011;12195;55.790;37.572;2023-05-19T05:24:22;6.80;;;4.53;;
20229;SDS011;12195;55.790;37.572;2023-05-19T05:27:07;4.53;;;3.42;;
20229;SDS011;12195;55.790;37.572;2023-05-19T05:29:40;5.58;;;3.85;;
20229;SDS011;12195;55.790;37.572;2023-05-19T05:32:25;10.10;;;3.47;;
20229;SDS011;12195;55.790;37.572;2023-05-19T05:34:59;7.00;;;3.77;;
20229;SDS011;12195;55.790;37.572;2023-05-19T05:37:32;4.83;;;3.50;;
20229;SDS011;12195;55.790;37.572;2023-05-19T05:40:17;9.43;;;4.15;;
20229;SDS011;12195;55.790;37.572;2023-05-19T05:42:51;5.90;;;3.90;;
20229;SDS011;12195;55.790;37.572;2023-05-19T05:45:25;10.70;;;4.12;;
20229;SDS011;12195;55.790;37.572;2023-05-19T05:48:10;5.10;;;3.67;;
20229;SDS011;12195;55.790;37.572;2023-05-19T05:50:43;6.10;;;4.05;;
20229;SDS011;12195;55.790;37.572;2023-05-19T05:53:30;5.70;;;4.05;;
20229;SDS011;12195;55.790;37.572;2023-05-19T05:56:07;9.38;;;4.95;;
20229;SDS011;12195;55.790;37.572;2023-05-19T05:58:54;6.70;;;4.15;;
20229;SDS011;12195;55.790;37.572;2023-05-19T06:01:26;9.85;;;4.00;;
20229;SDS011;12195;55.790;37.572;2023-05-19T06:04:12;6.97;;;4.53;;
20229;SDS011;12195;55.790;37.572;2023-05-19T06:06:45;5.40;;;4.22;;
20229;SDS011;12195;55.790;37.572;2023-05-19T06:09:32;6.72;;;3.77;;
20229;SDS011;12195;55.790;37.572;2023-05-19T06:12:16;13.25;;;5.10;;
20229;SDS011;12195;55.790;37.572;2023-05-19T06:14:49;10.55;;;4.78;;
20229;SDS011;12195;55.790;37.572;2023-05-19T06:17:51;6.78;;;4.58;;
20229;SDS011;12195;55.790;37.572;2023-05-19T06:20:24;11.83;;;5.40;;
20229;SDS011;12195;55.790;37.572;2023-05-19T06:22:58;5.85;;;4.35;;
20229;SDS011;12195;55.790;37.572;2023-05-19T06:25:42;12.55;;;5.78;;
20229;SDS011;12195;55.790;37.572;2023-05-19T06:28:25;10.63;;;4.55;;
20229;SDS011;12195;55.790;37.572;2023-05-19T06:30:58;6.95;;;4.58;;
20229;SDS011;12195;55.790;37.572;2023-05-19T06:33:55;10.25;;;5.03;;
20229;SDS011;12195;55.790;37.572;2023-05-19T06:36:27;6.03;;;4.37;;
20229;SDS011;12195;55.790;37.572;2023-05-19T06:39:11;7.03;;;5.00;;
20229;SDS011;12195;55.790;37.572;2023-05-19T06:41:55;11.85;;;5.40;;
20229;SDS011;12195;55.790;37.572;2023-05-19T06:44:54;8.40;;;5.30;;
20229;SDS011;12195;55.790;37.572;2023-05-19T06:47:30;11.05;;;5.05;;
20229;SDS011;12195;55.790;37.572;2023-05-19T06:50:14;6.95;;;4.72;;
20229;SDS011;12195;55.790;37.572;2023-05-19T06:52:48;7.45;;;5.17;;
20229;SDS011;12195;55.790;37.572;2023-05-19T06:55:31;11.48;;;5.15;;
20229;SDS011;12195;55.790;37.572;2023-05-19T06:58:05;14.68;;;4.95;;
20229;SDS011;12195;55.790;37.572;2023-05-19T07:00:49;9.20;;;4.53;;
20229;SDS011;12195;55.790;37.572;2023-05-19T07:03:23;12.27;;;5.67;;
20229;SDS011;12195;55.790;37.572;2023-05-19T07:06:08;9.55;;;5.22;;
20229;SDS011;12195;55.790;37.572;2023-05-19T07:08:41;8.40;;;4.72;;
20229;SDS011;12195;55.790;37.572;2023-05-19T07:11:23;7.50;;;4.25;;
20229;SDS011;12195;55.790;37.572;2023-05-19T07:13:57;10.80;;;5.45;;
20229;SDS011;12195;55.790;37.572;2023-05-19T07:16:42;10.80;;;5.53;;
20229;SDS011;12195;55.790;37.572;2023-05-19T07:19:15;7.47;;;4.72;;
20229;SDS011;12195;55.790;37.572;2023-05-19T07:22:02;8.20;;;4.70;;
20229;SDS011;12195;55.790;37.572;2023-05-19T07:24:46;8.08;;;5.35;;
20229;SDS011;12195;55.790;37.572;2023-05-19T07:27:31;10.72;;;5.67;;
20229;SDS011;12195;55.790;37.572;2023-05-19T07:30:17;9.28;;;5.15;;
20229;SDS011;12195;55.790;37.572;2023-05-19T07:32:50;8.08;;;4.72;;
20229;SDS011;12195;55.790;37.572;2023-05-19T07:35:33;9.43;;;5.12;;
20229;SDS011;12195;55.790;37.572;2023-05-19T07:38:06;9.10;;;5.35;;
20229;SDS011;12195;55.790;37.572;2023-05-19T07:40:50;8.83;;;4.53;;
20229;SDS011;12195;55.790;37.572;2023-05-19T07:43:23;11.12;;;6.25;;
20229;SDS011;12195;55.790;37.572;2023-05-19T07:46:08;5.97;;;3.95;;
20229;SDS011;12195;55.790;37.572;2023-05-19T07:48:52;7.12;;;4.28;;
20229;SDS011;12195;55.790;37.572;2023-05-19T07:51:25;9.88;;;4.58;;
20229;SDS011;12195;55.790;37.572;2023-05-19T07:54:07;5.42;;;3.33;;
20229;SDS011;12195;55.790;37.572;2023-05-19T07:56:51;7.45;;;3.30;;
20229;SDS011;12195;55.790;37.572;2023-05-19T07:59:33;5.30;;;3.25;;
20229;SDS011;12195;55.790;37.572;2023-05-19T08:02:06;7.20;;;3.25;;
20229;SDS011;12195;55.790;37.572;2023-05-19T08:04:51;5.28;;;2.90;;
20229;SDS011;12195;55.790;37.572;2023-05-19T08:07:26;5.78;;;2.50;;
20229;SDS011;12195;55.790;37.572;2023-05-19T08:10:10;7.17;;;2.75;;
20229;SDS011;12195;55.790;37.572;2023-05-19T08:12:43;5.60;;;3.08;;
20229;SDS011;12195;55.790;37.572;2023-05-19T08:15:25;4.45;;;2.65;;
20229;SDS011;12195;55.790;37.572;2023-05-19T08:17:58;9.63;;;2.70;;
20229;SDS011;12195;55.790;37.572;2023-05-19T08:20:43;5.05;;;2.98;;
20229;SDS011;12195;55.790;37.572;2023-05-19T08:23:16;3.83;;;2.25;;
20229;SDS011;12195;55.790;37.572;2023-05-19T08:26:00;4.12;;;2.12;;
20229;SDS011;12195;55.790;37.572;2023-05-19T08:28:34;7.97;;;2.70;;
20229;SDS011;12195;55.790;37.572;2023-05-19T08:31:18;6.70;;;2.92;;
20229;SDS011;12195;55.790;37.572;2023-05-19T08:33:51;3.60;;;2.67;;
20229;SDS011;12195;55.790;37.572;2023-05-19T08:36:36;6.80;;;2.75;;
20229;SDS011;12195;55.790;37.572;2023-05-19T08:39:10;11.70;;;3.22;;
20229;SDS011;12195;55.790;37.572;2023-05-19T08:41:54;7.72;;;2.98;;
20229;SDS011;12195;55.790;37.572;2023-05-19T08:44:37;6.50;;;3.17;;
20229;SDS011;12195;55.790;37.572;2023-05-19T08:47:12;6.12;;;2.30;;
20229;SDS011;12195;55.790;37.572;2023-05-19T08:49:59;3.98;;;2.25;;
20229;SDS011;12195;55.790;37.572;2023-05-19T08:52:46;4.53;;;2.35;;
20229;SDS011;12195;55.790;37.572;2023-05-19T08:55:35;5.50;;;2.35;;
20229;SDS011;12195;55.790;37.572;2023-05-19T08:58:23;7.85;;;2.70;;
20229;SDS011;12195;55.790;37.572;2023-05-19T09:01:12;9.73;;;2.05;;
20229;SDS011;12195;55.790;37.572;2023-05-19T09:03:58;3.87;;;1.70;;
20229;SDS011;12195;55.790;37.572;2023-05-19T09:06:41;3.80;;;1.62;;
20229;SDS011;12195;55.790;37.572;2023-05-19T09:09:24;2.55;;;1.40;;
20229;SDS011;12195;55.790;37.572;2023-05-19T09:11:57;2.67;;;1.50;;
20229;SDS011;12195;55.790;37.572;2023-05-19T09:14:41;3.70;;;1.92;;
20229;SDS011;12195;55.790;37.572;2023-05-19T09:17:14;4.03;;;1.98;;
20229;SDS011;12195;55.790;37.572;2023-05-19T09:19:48;2.55;;;1.70;;
20229;SDS011;12195;55.790;37.572;2023-05-19T09:22:30;4.22;;;1.65;;
20229;SDS011;12195;55.790;37.572;2023-05-19T09:25:20;4.78;;;1.60;;
20229;SDS011;12195;55.790;37.572;2023-05-19T09:28:02;4.78;;;1.55;;
20229;SDS011;12195;55.790;37.572;2023-05-19T09:30:37;5.92;;;1.65;;
20229;SDS011;12195;55.790;37.572;2023-05-19T09:33:19;1.98;;;1.42;;
20229;SDS011;12195;55.790;37.572;2023-05-19T09:35:52;4.33;;;2.10;;
20229;SDS011;12195;55.790;37.572;2023-05-19T09:38:26;3.65;;;1.92;;
20229;SDS011;12195;55.790;37.572;2023-05-19T09:41:13;3.90;;;1.57;;
20229;SDS011;12195;55.790;37.572;2023-05-19T09:43:48;3.55;;;1.52;;
20229;SDS011;12195;55.790;37.572;2023-05-19T09:46:33;3.95;;;1.60;;
20229;SDS011;12195;55.790;37.572;2023-05-19T09:49:27;3.12;;;1.55;;
20229;SDS011;12195;55.790;37.572;2023-05-19T09:52:02;2.52;;;1.40;;
20229;SDS011;12195;55.790;37.572;2023-05-19T09:54:47;4.75;;;1.72;;
20229;SDS011;12195;55.790;37.572;2023-05-19T09:57:24;3.65;;;1.90;;
20229;SDS011;12195;55.790;37.572;2023-05-19T10:00:07;4.53;;;1.72;;
20229;SDS011;12195;55.790;37.572;2023-05-19T10:03:02;3.37;;;1.67;;
20229;SDS011;12195;55.790;37.572;2023-05-19T10:05:48;2.08;;;1.35;;
20229;SDS011;12195;55.790;37.572;2023-05-19T10:08:23;3.72;;;1.50;;
20229;SDS011;12195;55.790;37.572;2023-05-19T10:11:09;4.00;;;1.60;;
20229;SDS011;12195;55.790;37.572;2023-05-19T10:13:42;6.12;;;1.77;;
20229;SDS011;12195;55.790;37.572;2023-05-19T10:16:36;2.25;;;1.30;;
20229;SDS011;12195;55.790;37.572;2023-05-19T10:19:10;3.10;;;1.27;;
20229;SDS011;12195;55.790;37.572;2023-05-19T10:21:53;4.05;;;1.20;;
20229;SDS011;12195;55.790;37.572;2023-05-19T10:24:26;5.05;;;1.77;;
20229;SDS011;12195;55.790;37.572;2023-05-19T10:27:09;1.67;;;1.57;;
20229;SDS011;12195;55.790;37.572;2023-05-19T10:29:56;4.20;;;1.22;;
20229;SDS011;12195;55.790;37.572;2023-05-19T10:32:31;5.70;;;1.67;;
20229;SDS011;12195;55.790;37.572;2023-05-19T10:35:23;3.72;;;1.70;;
20229;SDS011;12195;55.790;37.572;2023-05-19T10:47:05;3.08;;;1.50;;
20229;SDS011;12195;55.790;37.572;2023-05-19T10:49:52;6.42;;;1.82;;
20229;SDS011;12195;55.790;37.572;2023-05-19T10:52:38;8.53;;;3.22;;
20229;SDS011;12195;55.790;37.572;2023-05-19T10:55:11;6.37;;;1.70;;
20229;SDS011;12195;55.790;37.572;2023-05-19T10:57:56;3.27;;;1.40;;
20229;SDS011;12195;55.790;37.572;2023-05-19T11:00:30;2.50;;;1.47;;
20229;SDS011;12195;55.790;37.572;2023-05-19T11:03:15;2.05;;;1.15;;
20229;SDS011;12195;55.790;37.572;2023-05-19T11:05:50;4.75;;;1.17;;
20229;SDS011;12195;55.790;37.572;2023-05-19T11:08:33;5.42;;;1.40;;
20229;SDS011;12195;55.790;37.572;2023-05-19T11:11:15;2.85;;;1.47;;
20229;SDS011;12195;55.790;37.572;2023-05-19T11:13:59;3.15;;;1.40;;
20229;SDS011;12195;55.790;37.572;2023-05-19T11:16:33;4.05;;;1.20;;
20229;SDS011;12195;55.790;37.572;2023-05-19T11:19:18;4.92;;;1.27;;
20229;SDS011;12195;55.790;37.572;2023-05-19T11:22:13;2.20;;;1.10;;
20229;SDS011;12195;55.790;37.572;2023-05-19T11:24:45;2.80;;;1.35;;
20229;SDS011;12195;55.790;37.572;2023-05-19T11:27:33;7.55;;;1.90;;
20229;SDS011;12195;55.790;37.572;2023-05-19T11:30:19;2.12;;;1.00;;
20229;SDS011;12195;55.790;37.572;2023-05-19T11:32:52;2.92;;;1.07;;
20229;SDS011;12195;55.790;37.572;2023-05-19T11:35:37;2.50;;;0.85;;
20229;SDS011;12195;55.790;37.572;2023-05-19T11:38:10;3.92;;;1.22;;
20229;SDS011;12195;55.790;37.572;2023-05-19T11:40:55;8.15;;;1.20;;
20229;SDS011;12195;55.790;37.572;2023-05-19T11:43:28;4.60;;;0.90;;
20229;SDS011;12195;55.790;37.572;2023-05-19T11:46:10;3.15;;;1.50;;
20229;SDS011;12195;55.790;37.572;2023-05-19T11:48:54;3.00;;;0.90;;
20229;SDS011;12195;55.790;37.572;2023-05-19T11:51:27;2.65;;;0.93;;
20229;SDS011;12195;55.790;37.572;2023-05-19T11:54:12;5.53;;;2.00;;
20229;SDS011;12195;55.790;37.572;2023-05-19T11:56:56;2.05;;;1.02;;
20229;SDS011;12195;55.790;37.572;2023-05-19T11:59:32;4.53;;;1.30;;
20229;SDS011;12195;55.790;37.572;2023-05-19T12:02:22;2.87;;;1.15;;
20229;SDS011;12195;55.790;37.572;2023-05-19T12:05:16;2.77;;;1.02;;
20229;SDS011;12195;55.790;37.572;2023-05-19T12:07:55;5.78;;;1.20;;
20229;SDS011;12195;55.790;37.572;2023-05-19T12:10:29;4.83;;;0.98;;
20229;SDS011;12195;55.790;37.572;2023-05-19T12:13:15;3.70;;;0.93;;
20229;SDS011;12195;55.790;37.572;2023-05-19T12:15:57;7.58;;;1.57;;
20229;SDS011;12195;55.790;37.572;2023-05-19T12:18:38;3.20;;;1.40;;
20229;SDS011;12195;55.790;37.572;2023-05-19T12:21:11;1.90;;;0.93;;
20229;SDS011;12195;55.790;37.572;2023-05-19T12:23:53;1.32;;;0.88;;
20229;SDS011;12195;55.790;37.572;2023-05-19T12:26:27;3.27;;;1.27;;
20229;SDS011;12195;55.790;37.572;2023-05-19T12:29:15;4.65;;;1.40;;
20229;SDS011;12195;55.790;37.572;2023-05-19T12:31:48;2.42;;;1.10;;
20229;SDS011;12195;55.790;37.572;2023-05-19T12:34:30;5.33;;;1.00;;
20229;SDS011;12195;55.790;37.572;2023-05-19T12:37:14;1.92;;;0.95;;
20229;SDS011;12195;55.790;37.572;2023-05-19T12:39:52;2.10;;;0.70;;
20229;SDS011;12195;55.790;37.572;2023-05-19T12:42:33;2.27;;;0.98;;
20229;SDS011;12195;55.790;37.572;2023-05-19T12:45:06;5.25;;;1.10;;
20229;SDS011;12195;55.790;37.572;2023-05-19T12:47:49;2.60;;;0.90;;
20229;SDS011;12195;55.790;37.572;2023-05-19T12:50:28;1.37;;;1.27;;
20229;SDS011;12195;55.790;37.572;2023-05-19T12:53:13;6.80;;;1.87;;
20229;SDS011;12195;55.790;37.572;2023-05-19T12:55:47;4.00;;;1.10;;
20229;SDS011;12195;55.790;37.572;2023-05-19T12:58:32;3.12;;;1.05;;
20229;SDS011;12195;55.790;37.572;2023-05-19T13:01:05;3.20;;;1.02;;
20229;SDS011;12195;55.790;37.572;2023-05-19T13:03:59;2.70;;;1.20;;
20229;SDS011;12195;55.790;37.572;2023-05-19T13:06:33;2.85;;;1.10;;
20229;SDS011;12195;55.790;37.572;2023-05-19T13:09:19;6.15;;;1.07;;
20229;SDS011;12195;55.790;37.572;2023-05-19T13:11:51;2.80;;;1.17;;
20229;SDS011;12195;55.790;37.572;2023-05-19T13:14:34;1.82;;;0.90;;
20229;SDS011;12195;55.790;37.572;2023-05-19T13:17:07;4.72;;;1.05;;
20229;SDS011;12195;55.790;37.572;2023-05-19T13:20:11;1.25;;;0.85;;
20229;SDS011;12195;55.790;37.572;2023-05-19T13:22:53;9.08;;;1.60;;
20229;SDS011;12195;55.790;37.572;2023-05-19T13:25:38;10.10;;;1.45;;
20229;SDS011;12195;55.790;37.572;2023-05-19T13:28:11;2.03;;;0.87;;
20229;SDS011;12195;55.790;37.572;2023-05-19T13:30:56;3.00;;;1.27;;
20229;SDS011;12195;55.790;37.572;2023-05-19T13:33:29;3.83;;;1.15;;
20229;SDS011;12195;55.790;37.572;2023-05-19T13:36:02;1.55;;;1.00;;
20229;SDS011;12195;55.790;37.572;2023-05-19T13:38:47;1.77;;;1.00;;
20229;SDS011;12195;55.790;37.572;2023-05-19T13:41:23;5.78;;;2.20;;
20229;SDS011;12195;55.790;37.572;2023-05-19T13:44:08;5.67;;;1.60;;
20229;SDS011;12195;55.790;37.572;2023-05-19T13:46:40;1.82;;;0.90;;
20229;SDS011;12195;55.790;37.572;2023-05-19T13:49:26;10.45;;;2.30;;
20229;SDS011;12195;55.790;37.572;2023-05-19T13:51:59;5.50;;;1.12;;
20229;SDS011;12195;55.790;37.572;2023-05-19T13:54:41;2.67;;;1.07;;
20229;SDS011;12195;55.790;37.572;2023-05-19T13:57:25;4.45;;;1.07;;
20229;SDS011;12195;55.790;37.572;2023-05-19T13:59:58;6.62;;;2.47;;
20229;SDS011;12195;55.790;37.572;2023-05-19T14:02:45;3.85;;;1.22;;
20229;SDS011;12195;55.790;37.572;2023-05-19T14:05:18;3.65;;;1.22;;
20229;SDS011;12195;55.790;37.572;2023-05-19T14:08:00;3.10;;;1.35;;
20229;SDS011;12195;55.790;37.572;2023-05-19T14:10:35;5.87;;;1.35;;
20229;SDS011;12195;55.790;37.572;2023-05-19T14:13:17;3.67;;;1.10;;
20229;SDS011;12195;55.790;37.572;2023-05-19T14:15:52;3.70;;;0.95;;
20229;SDS011;12195;55.790;37.572;2023-05-19T14:18:34;4.78;;;1.00;;
20229;SDS011;12195;55.790;37.572;2023-05-19T14:21:19;3.52;;;1.57;;
20229;SDS011;12195;55.790;37.572;2023-05-19T14:23:51;3.67;;;1.50;;
20229;SDS011;12195;55.790;37.572;2023-05-19T14:26:34;2.67;;;1.30;;
20229;SDS011;12195;55.790;37.572;2023-05-19T14:29:06;7.62;;;1.92;;
20229;SDS011;12195;55.790;37.572;2023-05-19T14:31:39;3.83;;;1.67;;
20229;SDS011;12195;55.790;37.572;2023-05-19T14:34:21;4.17;;;1.10;;
20229;SDS011;12195;55.790;37.572;2023-05-19T14:36:54;6.12;;;1.80;;
20229;SDS011;12195;55.790;37.572;2023-05-19T14:39:36;2.87;;;1.60;;
20229;SDS011;12195;55.790;37.572;2023-05-19T14:42:09;1.85;;;0.80;;
20229;SDS011;12195;55.790;37.572;2023-05-19T14:44:53;3.47;;;1.55;;
20229;SDS011;12195;55.790;37.572;2023-05-19T14:47:26;4.05;;;1.00;;
20229;SDS011;12195;55.790;37.572;2023-05-19T14:50:08;5.12;;;1.10;;
20229;SDS011;12195;55.790;37.572;2023-05-19T14:52:41;2.70;;;0.82;;
20229;SDS011;12195;55.790;37.572;2023-05-19T14:55:23;7.05;;;1.22;;
20229;SDS011;12195;55.790;37.572;2023-05-19T14:57:56;6.03;;;1.52;;
20229;SDS011;12195;55.790;37.572;2023-05-19T15:00:38;3.27;;;1.40;;
20229;SDS011;12195;55.790;37.572;2023-05-19T15:03:11;6.15;;;1.17;;
20229;SDS011;12195;55.790;37.572;2023-05-19T15:05:54;2.50;;;1.00;;
20229;SDS011;12195;55.790;37.572;2023-05-19T15:08:26;4.72;;;1.10;;
20229;SDS011;12195;55.790;37.572;2023-05-19T15:11:10;4.30;;;1.62;;
20229;SDS011;12195;55.790;37.572;2023-05-19T15:13:43;11.35;;;2.12;;
20229;SDS011;12195;55.790;37.572;2023-05-19T15:16:25;3.35;;;1.90;;
20229;SDS011;12195;55.790;37.572;2023-05-19T15:19:09;3.45;;;1.17;;
20229;SDS011;12195;55.790;37.572;2023-05-19T15:21:42;1.82;;;1.17;;
20229;SDS011;12195;55.790;37.572;2023-05-19T15:24:24;3.90;;;0.95;;
20229;SDS011;12195;55.790;37.572;2023-05-19T15:26:57;6.95;;;1.87;;
20229;SDS011;12195;55.790;37.572;2023-05-19T15:29:41;8.00;;;1.90;;
20229;SDS011;12195;55.790;37.572;2023-05-19T15:32:13;4.55;;;1.32;;
20229;SDS011;12195;55.790;37.572;2023-05-19T15:34:58;2.60;;;1.07;;
20229;SDS011;12195;55.790;37.572;2023-05-19T15:37:33;1.40;;;1.00;;
20229;SDS011;12195;55.790;37.572;2023-05-19T15:40:18;4.60;;;1.30;;
20229;SDS011;12195;55.790;37.572;2023-05-19T15:42:51;5.37;;;0.85;;
20229;SDS011;12195;55.790;37.572;2023-05-19T15:45:33;3.42;;;1.10;;
20229;SDS011;12195;55.790;37.572;2023-05-19T15:48:06;10.65;;;1.50;;
20229;SDS011;12195;55.790;37.572;2023-05-19T15:50:50;4.08;;;1.52;;
20229;SDS011;12195;55.790;37.572;2023-05-19T15:53:23;9.15;;;2.22;;
20229;SDS011;12195;55.790;37.572;2023-05-19T15:56:06;4.28;;;1.05;;
20229;SDS011;12195;55.790;37.572;2023-05-19T15:58:39;2.22;;;0.90;;
20229;SDS011;12195;55.790;37.572;2023-05-19T16:01:22;1.42;;;0.70;;
20229;SDS011;12195;55.790;37.572;2023-05-19T16:03:56;1.80;;;0.80;;
20229;SDS011;12195;55.790;37.572;2023-05-19T16:06:42;3.62;;;1.20;;
20229;SDS011;12195;55.790;37.572;2023-05-19T16:09:15;5.60;;;1.82;;
20229;SDS011;12195;55.790;37.572;2023-05-19T16:11:58;6.65;;;1.47;;
20229;SDS011;12195;55.790;37.572;2023-05-19T16:14:43;4.58;;;1.65;;
20229;SDS011;12195;55.790;37.572;2023-05-19T16:17:16;7.70;;;1.32;;